sensor_id;sensor_type;location;lat;lon;timestamp;P1;durP1;ratioP1;P2;durP2;ratioP2
75548;SDS011;64133;56.002;37.208;2023-04-08T00:02:07;8.00;;;3.33;;
75548;SDS011;64133;56.002;37.208;2023-04-08T00:07:11;7.40;;;2.80;;
75548;SDS011;64133;56.002;37.208;2023-04-08T00:12:16;6.00;;;3.22;;
75548;SDS011;64133;56.002;37.208;2023-04-08T00:17:21;8.70;;;2.62;;
75548;SDS011;64133;56.002;37.208;2023-04-08T00:22:25;5.20;;;2.67;;
75548;SDS011;64133;56.002;37.208;2023-04-08T00:27:30;5.35;;;2.77;;
75548;SDS011;64133;56.002;37.208;2023-04-08T00:32:34;8.00;;;3.77;;
75548;SDS011;64133;56.002;37.208;2023-04-08T00:37:39;7.67;;;2.87;;
75548;SDS011;64133;56.002;37.208;2023-04-08T00:42:44;3.95;;;1.92;;
75548;SDS011;64133;56.002;37.208;2023-04-08T00:47:48;6.45;;;3.08;;
75548;SDS011;64133;56.002;37.208;2023-04-08T00:52:53;4.90;;;2.30;;
75548;SDS011;64133;56.002;37.208;2023-04-08T00:57:58;5.22;;;2.90;;
75548;SDS011;64133;56.002;37.208;2023-04-08T01:03:04;5.47;;;2.47;;
75548;SDS011;64133;56.002;37.208;2023-04-08T01:08:08;10.82;;;3.42;;
75548;SDS011;64133;56.002;37.208;2023-04-08T01:13:13;4.72;;;2.27;;
75548;SDS011;64133;56.002;37.208;2023-04-08T01:18:17;5.90;;;2.30;;
75548;SDS011;64133;56.002;37.208;2023-04-08T01:23:24;4.80;;;2.40;;
75548;SDS011;64133;56.002;37.208;2023-04-08T01:28:28;4.92;;;2.55;;
75548;SDS011;64133;56.002;37.208;2023-04-08T01:33:32;6.78;;;1.98;;
75548;SDS011;64133;56.002;37.208;2023-04-08T01:38:37;4.75;;;2.00;;
75548;SDS011;64133;56.002;37.208;2023-04-08T01:43:41;5.87;;;2.58;;
75548;SDS011;64133;56.002;37.208;2023-04-08T01:48:46;4.80;;;2.10;;
75548;SDS011;64133;56.002;37.208;2023-04-08T01:53:50;5.75;;;2.20;;
75548;SDS011;64133;56.002;37.208;2023-04-08T01:58:55;7.15;;;2.52;;
75548;SDS011;64133;56.002;37.208;2023-04-08T02:04:00;4.28;;;2.20;;
75548;SDS011;64133;56.002;37.208;2023-04-08T02:09:04;4.35;;;1.87;;
75548;SDS011;64133;56.002;37.208;2023-04-08T02:14:09;7.00;;;2.55;;
75548;SDS011;64133;56.002;37.208;2023-04-08T02:19:14;5.22;;;2.70;;
75548;SDS011;64133;56.002;37.208;2023-04-08T02:24:19;6.45;;;2.47;;
75548;SDS011;64133;56.002;37.208;2023-04-08T02:29:23;6.67;;;2.25;;
75548;SDS011;64133;56.002;37.208;2023-04-08T02:34:28;5.83;;;2.40;;
75548;SDS011;64133;56.002;37.208;2023-04-08T02:39:33;3.92;;;1.47;;
75548;SDS011;64133;56.002;37.208;2023-04-08T02:44:37;7.87;;;3.80;;
75548;SDS011;64133;56.002;37.208;2023-04-08T02:49:42;5.15;;;2.52;;
75548;SDS011;64133;56.002;37.208;2023-04-08T02:54:47;5.40;;;2.17;;
75548;SDS011;64133;56.002;37.208;2023-04-08T02:59:51;3.40;;;1.60;;
75548;SDS011;64133;56.002;37.208;2023-04-08T03:04:56;4.50;;;2.77;;
75548;SDS011;64133;56.002;37.208;2023-04-08T03:10:01;5.28;;;2.98;;
75548;SDS011;64133;56.002;37.208;2023-04-08T03:15:06;8.33;;;3.30;;
75548;SDS011;64133;56.002;37.208;2023-04-08T03:20:11;8.33;;;3.27;;
75548;SDS011;64133;56.002;37.208;2023-04-08T03:25:16;5.03;;;3.20;;
75548;SDS011;64133;56.002;37.208;2023-04-08T03:30:21;8.40;;;4.03;;
75548;SDS011;64133;56.002;37.208;2023-04-08T03:35:26;6.80;;;3.10;;
75548;SDS011;64133;56.002;37.208;2023-04-08T03:40:31;7.28;;;3.08;;
75548;SDS011;64133;56.002;37.208;2023-04-08T03:45:36;4.53;;;2.87;;
75548;SDS011;64133;56.002;37.208;2023-04-08T03:50:40;9.00;;;3.47;;
75548;SDS011;64133;56.002;37.208;2023-04-08T03:55:45;6.17;;;3.05;;
75548;SDS011;64133;56.002;37.208;2023-04-08T04:00:52;7.28;;;3.33;;
75548;SDS011;64133;56.002;37.208;2023-04-08T04:05:57;7.30;;;3.62;;
75548;SDS011;64133;56.002;37.208;2023-04-08T04:11:01;10.18;;;3.45;;
75548;SDS011;64133;56.002;37.208;2023-04-08T04:16:06;13.55;;;4.28;;
75548;SDS011;64133;56.002;37.208;2023-04-08T04:21:11;10.98;;;4.45;;
75548;SDS011;64133;56.002;37.208;2023-04-08T04:26:15;6.10;;;4.28;;
75548;SDS011;64133;56.002;37.208;2023-04-08T04:31:20;10.03;;;3.83;;
75548;SDS011;64133;56.002;37.208;2023-04-08T04:36:25;6.90;;;3.75;;
75548;SDS011;64133;56.002;37.208;2023-04-08T04:41:30;8.63;;;3.95;;
75548;SDS011;64133;56.002;37.208;2023-04-08T04:46:34;7.40;;;3.50;;
75548;SDS011;64133;56.002;37.208;2023-04-08T04:51:39;11.63;;;5.05;;
75548;SDS011;64133;56.002;37.208;2023-04-08T04:56:44;9.55;;;4.60;;
75548;SDS011;64133;56.002;37.208;2023-04-08T05:01:48;8.15;;;4.53;;
75548;SDS011;64133;56.002;37.208;2023-04-08T05:06:53;14.33;;;5.30;;
75548;SDS011;64133;56.002;37.208;2023-04-08T05:11:58;13.55;;;6.05;;
75548;SDS011;64133;56.002;37.208;2023-04-08T05:17:03;11.90;;;5.65;;
75548;SDS011;64133;56.002;37.208;2023-04-08T05:22:07;11.48;;;5.15;;
75548;SDS011;64133;56.002;37.208;2023-04-08T05:27:12;9.05;;;5.78;;
75548;SDS011;64133;56.002;37.208;2023-04-08T05:32:16;14.83;;;5.25;;
75548;SDS011;64133;56.002;37.208;2023-04-08T05:37:21;7.80;;;5.10;;
75548;SDS011;64133;56.002;37.208;2023-04-08T05:42:26;8.68;;;5.25;;
75548;SDS011;64133;56.002;37.208;2023-04-08T05:47:30;7.60;;;5.00;;
75548;SDS011;64133;56.002;37.208;2023-04-08T05:52:36;9.25;;;5.97;;
75548;SDS011;64133;56.002;37.208;2023-04-08T05:57:41;11.18;;;4.95;;
75548;SDS011;64133;56.002;37.208;2023-04-08T06:02:46;9.08;;;5.65;;
75548;SDS011;64133;56.002;37.208;2023-04-08T06:07:51;7.67;;;4.70;;
75548;SDS011;64133;56.002;37.208;2023-04-08T06:12:55;9.15;;;5.65;;
75548;SDS011;64133;56.002;37.208;2023-04-08T06:18:00;11.83;;;5.83;;
75548;SDS011;64133;56.002;37.208;2023-04-08T06:23:05;11.68;;;5.60;;
75548;SDS011;64133;56.002;37.208;2023-04-08T06:28:09;9.95;;;6.05;;
75548;SDS011;64133;56.002;37.208;2023-04-08T06:33:14;12.03;;;5.83;;
75548;SDS011;64133;56.002;37.208;2023-04-08T06:38:19;11.75;;;5.60;;
75548;SDS011;64133;56.002;37.208;2023-04-08T06:43:23;12.43;;;5.62;;
75548;SDS011;64133;56.002;37.208;2023-04-08T06:48:28;9.90;;;5.03;;
75548;SDS011;64133;56.002;37.208;2023-04-08T06:53:32;14.47;;;5.53;;
75548;SDS011;64133;56.002;37.208;2023-04-08T06:58:37;13.65;;;5.50;;
75548;SDS011;64133;56.002;37.208;2023-04-08T07:03:42;11.33;;;5.10;;
75548;SDS011;64133;56.002;37.208;2023-04-08T07:08:46;12.40;;;5.67;;
75548;SDS011;64133;56.002;37.208;2023-04-08T07:13:51;7.50;;;5.08;;
75548;SDS011;64133;56.002;37.208;2023-04-08T07:18:56;8.65;;;5.45;;
75548;SDS011;64133;56.002;37.208;2023-04-08T07:24:00;14.07;;;5.92;;
75548;SDS011;64133;56.002;37.208;2023-04-08T07:29:05;12.10;;;5.85;;
75548;SDS011;64133;56.002;37.208;2023-04-08T07:34:10;9.55;;;4.78;;
75548;SDS011;64133;56.002;37.208;2023-04-08T07:39:14;7.00;;;4.58;;
75548;SDS011;64133;56.002;37.208;2023-04-08T07:44:19;9.48;;;3.90;;
75548;SDS011;64133;56.002;37.208;2023-04-08T07:49:24;13.90;;;5.12;;
75548;SDS011;64133;56.002;37.208;2023-04-08T07:54:28;7.08;;;4.65;;
75548;SDS011;64133;56.002;37.208;2023-04-08T07:59:34;6.55;;;3.45;;
75548;SDS011;64133;56.002;37.208;2023-04-08T08:04:38;6.08;;;3.70;;
75548;SDS011;64133;56.002;37.208;2023-04-08T08:09:43;9.55;;;3.42;;
75548;SDS011;64133;56.002;37.208;2023-04-08T08:14:48;7.85;;;3.52;;
75548;SDS011;64133;56.002;37.208;2023-04-08T08:19:53;13.08;;;4.95;;
75548;SDS011;64133;56.002;37.208;2023-04-08T08:24:57;6.12;;;2.85;;
75548;SDS011;64133;56.002;37.208;2023-04-08T08:30:02;8.93;;;2.75;;
75548;SDS011;64133;56.002;37.208;2023-04-08T08:35:08;7.28;;;3.55;;
75548;SDS011;64133;56.002;37.208;2023-04-08T08:40:13;6.00;;;3.80;;
75548;SDS011;64133;56.002;37.208;2023-04-08T08:45:17;8.98;;;3.70;;
75548;SDS011;64133;56.002;37.208;2023-04-08T08:50:23;6.37;;;2.80;;
75548;SDS011;64133;56.002;37.208;2023-04-08T08:55:29;9.53;;;3.60;;
75548;SDS011;64133;56.002;37.208;2023-04-08T09:00:33;7.33;;;3.25;;
75548;SDS011;64133;56.002;37.208;2023-04-08T09:05:40;8.30;;;2.77;;
75548;SDS011;64133;56.002;37.208;2023-04-08T09:10:51;5.03;;;2.77;;
75548;SDS011;64133;56.002;37.208;2023-04-08T09:16:02;7.08;;;2.22;;
75548;SDS011;64133;56.002;37.208;2023-04-08T09:21:07;6.33;;;2.30;;
75548;SDS011;64133;56.002;37.208;2023-04-08T09:26:13;9.48;;;2.70;;
75548;SDS011;64133;56.002;37.208;2023-04-08T09:31:20;5.12;;;2.20;;
75548;SDS011;64133;56.002;37.208;2023-04-08T09:36:24;7.28;;;2.62;;
75548;SDS011;64133;56.002;37.208;2023-04-08T09:41:29;7.22;;;3.20;;
75548;SDS011;64133;56.002;37.208;2023-04-08T09:46:35;9.95;;;3.90;;
75548;SDS011;64133;56.002;37.208;2023-04-08T09:51:42;5.60;;;3.62;;
75548;SDS011;64133;56.002;37.208;2023-04-08T09:56:46;10.32;;;4.58;;
75548;SDS011;64133;56.002;37.208;2023-04-08T10:01:52;8.50;;;4.00;;
75548;SDS011;64133;56.002;37.208;2023-04-08T10:06:58;6.35;;;3.67;;
75548;SDS011;64133;56.002;37.208;2023-04-08T10:12:11;9.18;;;3.90;;
75548;SDS011;64133;56.002;37.208;2023-04-08T10:17:25;9.85;;;3.77;;
75548;SDS011;64133;56.002;37.208;2023-04-08T10:22:48;8.18;;;4.22;;
75548;SDS011;64133;56.002;37.208;2023-04-08T10:27:52;14.10;;;4.53;;
75548;SDS011;64133;56.002;37.208;2023-04-08T10:32:57;14.45;;;6.30;;
75548;SDS011;64133;56.002;37.208;2023-04-08T10:38:02;6.42;;;3.08;;
75548;SDS011;64133;56.002;37.208;2023-04-08T10:43:06;6.58;;;3.52;;
75548;SDS011;64133;56.002;37.208;2023-04-08T10:48:12;11.10;;;4.58;;
75548;SDS011;64133;56.002;37.208;2023-04-08T10:53:17;9.15;;;3.70;;
75548;SDS011;64133;56.002;37.208;2023-04-08T10:58:21;9.30;;;3.92;;
75548;SDS011;64133;56.002;37.208;2023-04-08T11:03:26;12.98;;;4.00;;
75548;SDS011;64133;56.002;37.208;2023-04-08T11:08:31;8.20;;;3.60;;
75548;SDS011;64133;56.002;37.208;2023-04-08T11:13:36;5.60;;;3.27;;
75548;SDS011;64133;56.002;37.208;2023-04-08T11:18:40;7.80;;;3.15;;
75548;SDS011;64133;56.002;37.208;2023-04-08T11:23:47;4.42;;;2.75;;
75548;SDS011;64133;56.002;37.208;2023-04-08T11:28:52;10.98;;;3.55;;
75548;SDS011;64133;56.002;37.208;2023-04-08T11:33:56;9.28;;;4.85;;
75548;SDS011;64133;56.002;37.208;2023-04-08T11:39:01;9.43;;;3.85;;
75548;SDS011;64133;56.002;37.208;2023-04-08T11:44:10;11.73;;;3.45;;
75548;SDS011;64133;56.002;37.208;2023-04-08T11:49:15;14.63;;;3.95;;
75548;SDS011;64133;56.002;37.208;2023-04-08T11:54:25;10.20;;;4.47;;
75548;SDS011;64133;56.002;37.208;2023-04-08T11:59:30;9.35;;;4.35;;
75548;SDS011;64133;56.002;37.208;2023-04-08T12:04:35;17.17;;;4.87;;
75548;SDS011;64133;56.002;37.208;2023-04-08T12:09:39;10.98;;;4.75;;
75548;SDS011;64133;56.002;37.208;2023-04-08T12:14:44;8.05;;;4.33;;
75548;SDS011;64133;56.002;37.208;2023-04-08T12:19:49;21.97;;;4.80;;
75548;SDS011;64133;56.002;37.208;2023-04-08T12:24:53;10.08;;;4.60;;
75548;SDS011;64133;56.002;37.208;2023-04-08T12:29:58;8.93;;;4.15;;
75548;SDS011;64133;56.002;37.208;2023-04-08T12:35:03;11.97;;;4.78;;
75548;SDS011;64133;56.002;37.208;2023-04-08T12:40:08;12.73;;;5.15;;
75548;SDS011;64133;56.002;37.208;2023-04-08T12:45:13;15.93;;;5.05;;
75548;SDS011;64133;56.002;37.208;2023-04-08T12:50:18;10.20;;;5.62;;
75548;SDS011;64133;56.002;37.208;2023-04-08T12:55:23;12.20;;;5.50;;
75548;SDS011;64133;56.002;37.208;2023-04-08T13:00:27;12.85;;;5.50;;
75548;SDS011;64133;56.002;37.208;2023-04-08T13:05:32;10.82;;;4.85;;
75548;SDS011;64133;56.002;37.208;2023-04-08T13:10:37;12.15;;;5.10;;
75548;SDS011;64133;56.002;37.208;2023-04-08T13:15:41;10.55;;;4.62;;
75548;SDS011;64133;56.002;37.208;2023-04-08T13:20:46;9.35;;;4.85;;
75548;SDS011;64133;56.002;37.208;2023-04-08T13:25:50;11.53;;;4.20;;
75548;SDS011;64133;56.002;37.208;2023-04-08T13:30:55;10.45;;;4.90;;
75548;SDS011;64133;56.002;37.208;2023-04-08T13:36:00;9.68;;;5.12;;
75548;SDS011;64133;56.002;37.208;2023-04-08T13:41:05;10.68;;;5.00;;
75548;SDS011;64133;56.002;37.208;2023-04-08T13:46:09;10.25;;;5.20;;
75548;SDS011;64133;56.002;37.208;2023-04-08T13:51:14;12.37;;;4.85;;
75548;SDS011;64133;56.002;37.208;2023-04-08T13:56:18;9.80;;;4.65;;
75548;SDS011;64133;56.002;37.208;2023-04-08T14:01:23;11.28;;;5.50;;
75548;SDS011;64133;56.002;37.208;2023-04-08T14:06:28;12.50;;;4.78;;
75548;SDS011;64133;56.002;37.208;2023-04-08T14:11:33;14.15;;;5.15;;
75548;SDS011;64133;56.002;37.208;2023-04-08T14:16:37;11.20;;;5.58;;
75548;SDS011;64133;56.002;37.208;2023-04-08T14:21:42;7.78;;;4.10;;
75548;SDS011;64133;56.002;37.208;2023-04-08T14:26:47;13.20;;;4.78;;
75548;SDS011;64133;56.002;37.208;2023-04-08T14:31:51;10.98;;;4.10;;
75548;SDS011;64133;56.002;37.208;2023-04-08T14:36:56;10.15;;;4.80;;
75548;SDS011;64133;56.002;37.208;2023-04-08T14:42:01;11.28;;;5.33;;
75548;SDS011;64133;56.002;37.208;2023-04-08T14:47:05;11.10;;;4.75;;
75548;SDS011;64133;56.002;37.208;2023-04-08T14:52:10;11.20;;;5.25;;
75548;SDS011;64133;56.002;37.208;2023-04-08T14:57:15;11.20;;;4.70;;
75548;SDS011;64133;56.002;37.208;2023-04-08T15:02:20;15.00;;;5.15;;
75548;SDS011;64133;56.002;37.208;2023-04-08T15:07:24;15.48;;;5.87;;
75548;SDS011;64133;56.002;37.208;2023-04-08T15:12:29;13.70;;;5.08;;
75548;SDS011;64133;56.002;37.208;2023-04-08T15:17:34;11.15;;;5.90;;
75548;SDS011;64133;56.002;37.208;2023-04-08T15:22:39;6.67;;;4.25;;
75548;SDS011;64133;56.002;37.208;2023-04-08T15:27:44;13.13;;;5.05;;
75548;SDS011;64133;56.002;37.208;2023-04-08T15:32:48;10.65;;;5.30;;
75548;SDS011;64133;56.002;37.208;2023-04-08T15:37:53;10.65;;;5.83;;
75548;SDS011;64133;56.002;37.208;2023-04-08T15:42:59;11.12;;;5.40;;
75548;SDS011;64133;56.002;37.208;2023-04-08T15:48:04;13.50;;;6.65;;
75548;SDS011;64133;56.002;37.208;2023-04-08T15:53:09;12.40;;;5.75;;
75548;SDS011;64133;56.002;37.208;2023-04-08T15:58:14;11.00;;;5.00;;
75548;SDS011;64133;56.002;37.208;2023-04-08T16:03:18;10.03;;;5.87;;
75548;SDS011;64133;56.002;37.208;2023-04-08T16:08:23;17.48;;;6.03;;
75548;SDS011;64133;56.002;37.208;2023-04-08T16:13:28;20.85;;;6.22;;
75548;SDS011;64133;56.002;37.208;2023-04-08T16:18:33;14.87;;;6.50;;
75548;SDS011;64133;56.002;37.208;2023-04-08T16:23:37;18.65;;;7.87;;
75548;SDS011;64133;56.002;37.208;2023-04-08T16:28:42;14.23;;;6.05;;
75548;SDS011;64133;56.002;37.208;2023-04-08T16:33:47;11.05;;;6.35;;
75548;SDS011;64133;56.002;37.208;2023-04-08T16:38:51;13.08;;;6.72;;
75548;SDS011;64133;56.002;37.208;2023-04-08T16:43:56;19.48;;;7.83;;
75548;SDS011;64133;56.002;37.208;2023-04-08T16:49:01;20.75;;;6.65;;
75548;SDS011;64133;56.002;37.208;2023-04-08T16:54:06;21.40;;;7.40;;
75548;SDS011;64133;56.002;37.208;2023-04-08T16:59:10;18.52;;;6.33;;
75548;SDS011;64133;56.002;37.208;2023-04-08T17:04:15;23.90;;;6.42;;
75548;SDS011;64133;56.002;37.208;2023-04-08T17:09:20;19.42;;;7.37;;
75548;SDS011;64133;56.002;37.208;2023-04-08T17:14:25;27.27;;;8.75;;
75548;SDS011;64133;56.002;37.208;2023-04-08T17:19:30;20.12;;;7.28;;
75548;SDS011;64133;56.002;37.208;2023-04-08T17:24:35;23.52;;;8.88;;
75548;SDS011;64133;56.002;37.208;2023-04-08T17:29:40;25.60;;;9.03;;
75548;SDS011;64133;56.002;37.208;2023-04-08T17:34:45;21.95;;;8.35;;
75548;SDS011;64133;56.002;37.208;2023-04-08T17:39:49;28.32;;;7.92;;
75548;SDS011;64133;56.002;37.208;2023-04-08T17:44:54;21.70;;;8.13;;
75548;SDS011;64133;56.002;37.208;2023-04-08T17:49:59;20.12;;;7.80;;
75548;SDS011;64133;56.002;37.208;2023-04-08T17:55:04;20.55;;;9.03;;
75548;SDS011;64133;56.002;37.208;2023-04-08T18:00:10;22.93;;;9.65;;
75548;SDS011;64133;56.002;37.208;2023-04-08T18:05:15;23.25;;;10.40;;
75548;SDS011;64133;56.002;37.208;2023-04-08T18:10:20;24.92;;;9.18;;
75548;SDS011;64133;56.002;37.208;2023-04-08T18:15:25;33.25;;;10.05;;
75548;SDS011;64133;56.002;37.208;2023-04-08T18:20:30;20.02;;;9.10;;
75548;SDS011;64133;56.002;37.208;2023-04-08T18:25:37;54.60;;;11.50;;
75548;SDS011;64133;56.002;37.208;2023-04-08T18:30:43;28.87;;;10.95;;
75548;SDS011;64133;56.002;37.208;2023-04-08T18:35:47;23.80;;;9.13;;
75548;SDS011;64133;56.002;37.208;2023-04-08T18:40:52;25.17;;;11.28;;
75548;SDS011;64133;56.002;37.208;2023-04-08T18:45:57;28.80;;;10.78;;
75548;SDS011;64133;56.002;37.208;2023-04-08T18:51:01;27.07;;;11.75;;
75548;SDS011;64133;56.002;37.208;2023-04-08T18:56:08;37.40;;;17.67;;
75548;SDS011;64133;56.002;37.208;2023-04-08T19:01:17;24.20;;;10.60;;
75548;SDS011;64133;56.002;37.208;2023-04-08T19:06:21;21.37;;;10.08;;
75548;SDS011;64133;56.002;37.208;2023-04-08T19:11:26;21.85;;;9.93;;
75548;SDS011;64133;56.002;37.208;2023-04-08T19:16:31;27.15;;;10.82;;
75548;SDS011;64133;56.002;37.208;2023-04-08T19:21:36;18.42;;;10.43;;
75548;SDS011;64133;56.002;37.208;2023-04-08T19:26:41;21.33;;;11.10;;
75548;SDS011;64133;56.002;37.208;2023-04-08T19:31:45;26.80;;;10.55;;
75548;SDS011;64133;56.002;37.208;2023-04-08T19:36:50;37.83;;;14.10;;
75548;SDS011;64133;56.002;37.208;2023-04-08T19:41:54;31.95;;;14.10;;
75548;SDS011;64133;56.002;37.208;2023-04-08T19:46:59;29.12;;;12.98;;
75548;SDS011;64133;56.002;37.208;2023-04-08T19:52:04;29.25;;;12.63;;
75548;SDS011;64133;56.002;37.208;2023-04-08T19:57:08;19.45;;;10.25;;
75548;SDS011;64133;56.002;37.208;2023-04-08T20:02:13;25.77;;;10.80;;
75548;SDS011;64133;56.002;37.208;2023-04-08T20:07:18;21.68;;;9.13;;
75548;SDS011;64133;56.002;37.208;2023-04-08T20:12:22;20.60;;;8.85;;
75548;SDS011;64133;56.002;37.208;2023-04-08T20:17:27;21.85;;;9.23;;
75548;SDS011;64133;56.002;37.208;2023-04-08T20:22:32;17.92;;;8.80;;
75548;SDS011;64133;56.002;37.208;2023-04-08T20:27:36;19.15;;;9.63;;
75548;SDS011;64133;56.002;37.208;2023-04-08T20:32:41;30.85;;;10.15;;
75548;SDS011;64133;56.002;37.208;2023-04-08T20:37:46;24.30;;;8.75;;
75548;SDS011;64133;56.002;37.208;2023-04-08T20:42:50;26.25;;;10.78;;
75548;SDS011;64133;56.002;37.208;2023-04-08T20:47:55;22.85;;;10.48;;
75548;SDS011;64133;56.002;37.208;2023-04-08T20:53:00;29.00;;;11.03;;
75548;SDS011;64133;56.002;37.208;2023-04-08T20:58:04;20.40;;;10.08;;
75548;SDS011;64133;56.002;37.208;2023-04-08T21:03:09;20.10;;;9.68;;
75548;SDS011;64133;56.002;37.208;2023-04-08T21:08:14;23.02;;;10.40;;
75548;SDS011;64133;56.002;37.208;2023-04-08T21:13:18;29.80;;;11.08;;
75548;SDS011;64133;56.002;37.208;2023-04-08T21:18:23;29.67;;;11.05;;
75548;SDS011;64133;56.002;37.208;2023-04-08T21:23:28;26.10;;;9.53;;
75548;SDS011;64133;56.002;37.208;2023-04-08T21:28:32;24.92;;;9.90;;
75548;SDS011;64133;56.002;37.208;2023-04-08T21:33:37;26.00;;;10.78;;
75548;SDS011;64133;56.002;37.208;2023-04-08T21:38:42;19.25;;;9.58;;
75548;SDS011;64133;56.002;37.208;2023-04-08T21:43:46;18.45;;;8.95;;
75548;SDS011;64133;56.002;37.208;2023-04-08T21:48:51;16.23;;;8.43;;
75548;SDS011;64133;56.002;37.208;2023-04-08T21:53:56;20.05;;;8.40;;
75548;SDS011;64133;56.002;37.208;2023-04-08T21:59:00;29.48;;;10.95;;
75548;SDS011;64133;56.002;37.208;2023-04-08T22:04:05;20.97;;;10.50;;
75548;SDS011;64133;56.002;37.208;2023-04-08T22:09:10;34.53;;;12.58;;
75548;SDS011;64133;56.002;37.208;2023-04-08T22:14:15;21.50;;;9.58;;
75548;SDS011;64133;56.002;37.208;2023-04-08T22:19:20;27.17;;;11.03;;
75548;SDS011;64133;56.002;37.208;2023-04-08T22:24:25;28.25;;;10.65;;
75548;SDS011;64133;56.002;37.208;2023-04-08T22:29:30;24.35;;;8.68;;
75548;SDS011;64133;56.002;37.208;2023-04-08T22:34:35;22.98;;;10.53;;
75548;SDS011;64133;56.002;37.208;2023-04-08T22:39:39;22.70;;;9.10;;
75548;SDS011;64133;56.002;37.208;2023-04-08T22:44:44;17.25;;;9.50;;
75548;SDS011;64133;56.002;37.208;2023-04-08T22:49:48;28.25;;;10.35;;
75548;SDS011;64133;56.002;37.208;2023-04-08T22:54:53;16.27;;;9.20;;
75548;SDS011;64133;56.002;37.208;2023-04-08T22:59:58;18.37;;;8.20;;
75548;SDS011;64133;56.002;37.208;2023-04-08T23:05:03;15.83;;;8.38;;
75548;SDS011;64133;56.002;37.208;2023-04-08T23:10:09;19.92;;;8.95;;
75548;SDS011;64133;56.002;37.208;2023-04-08T23:15:14;16.80;;;8.28;;
75548;SDS011;64133;56.002;37.208;2023-04-08T23:20:19;19.00;;;7.78;;
75548;SDS011;64133;56.002;37.208;2023-04-08T23:25:23;16.82;;;8.50;;
75548;SDS011;64133;56.002;37.208;2023-04-08T23:30:28;23.38;;;9.50;;
75548;SDS011;64133;56.002;37.208;2023-04-08T23:35:32;21.23;;;9.85;;
75548;SDS011;64133;56.002;37.208;2023-04-08T23:40:38;25.32;;;9.33;;
75548;SDS011;64133;56.002;37.208;2023-04-08T23:45:42;22.40;;;8.60;;
75548;SDS011;64133;56.002;37.208;2023-04-08T23:50:49;16.50;;;8.55;;
75548;SDS011;64133;56.002;37.208;2023-04-08T23:55:57;17.42;;;8.50;;
